Time;durP1;ratioP1;P1;durP2;ratioP2;P2;SDS_P1;SDS_P2;PMS_P1;PMS_P2;Temp;Humidity;BMP_temperature;BMP_pressure;BME280_temperature;BME280_humidity;BME280_pressure;Samples;Min_cycle;Max_cycle;Signal;HPM_P1;HPM_P2
2023/03/11 11:23:11;;;;;;;;;;;;;;;14.06;61.92;100844.59;1217169;22;1391325;-72
2023/03/11 11:24:01;;;;;;;;;;;;;;;14.08;61.77;100839.97;1271991;23;716;-72
2023/03/11 11:24:52;;;;;;;;;;;;;;;14.09;62.28;100839.00;1271298;23;642;-72
2023/03/11 11:25:42;;;;;;;;;;;;;;;14.10;62.20;100846.06;1273123;23;657;-73
2023/03/11 11:26:33;;;;;;;;;;;;;;;14.09;62.14;100839.00;1273405;23;645;-71
2023/03/11 11:27:23;;;;;;;;;;;;;;;14.10;61.58;100846.06;1272813;23;673;-72
2023/03/11 11:28:14;;;;;;;;;;;;;;;14.10;62.23;100845.19;1274565;23;625;-73
2023/03/11 11:29:04;;;;;;;;;;;;;;;14.10;62.07;100851.41;1272642;23;681;-72
2023/03/11 11:29:55;;;;;;;;;;;;;;;14.10;61.71;100846.06;1274331;23;692;-73
2023/03/11 11:30:45;;;;;;;;;;;;;;;14.10;61.58;100843.38;1271862;23;677;-73
2023/03/11 11:31:36;;;;;;;;;;;;;;;14.13;61.44;100844.97;1272908;23;645;-73
2023/03/11 11:32:26;;;;;;;;;;;;;;;14.13;61.81;100845.81;1274398;23;637;-73
2023/03/11 11:33:16;;;;;;;;;;;;;;;14.14;61.69;100844.84;1272714;23;646;-72
2023/03/11 11:34:07;;;;;;;;;;;;;;;14.13;61.55;100853.84;1274250;23;710;-73
2023/03/11 11:34:58;;;;;;;;;;;;;;;14.12;61.61;100852.16;1272724;23;627;-72
2023/03/11 11:35:48;;;;;;;;;;;;;;;14.12;61.39;100854.84;1272025;23;685;-74
2023/03/11 11:36:39;;;;;;;;;;;;;;;14.11;61.48;100847.75;1271660;23;721;-73
2023/03/11 11:37:30;;;;;;;;;;;;;;;14.12;61.20;100853.97;1272659;23;622;-73
2023/03/11 11:38:22;;;;;;;;;;;;;;;14.10;61.46;100851.41;1273443;23;687;-73
2023/03/11 11:39:13;;;;;;;;;;;;;;;14.10;61.13;100850.56;1271760;23;681;-73
2023/03/11 11:40:09;;;;;;;;;;;;;;;14.09;61.71;100851.53;1271536;23;632;-73
2023/03/11 11:41:00;;;;;;;;;;;;;;;14.10;61.49;100855.91;1273197;23;732;-73
2023/03/11 11:41:50;;;;;;;;;;;;;;;14.11;60.98;100849.59;1273561;23;637;-73
2023/03/11 11:42:41;;;;;;;;;;;;;;;14.12;61.33;100853.97;1272785;23;652;-73
2023/03/11 11:43:31;;;;;;;;;;;;;;;14.11;61.13;100846.91;1272738;23;620;-74
2023/03/11 11:44:22;;;;;;;;;;;;;;;14.13;61.23;100850.31;1272071;23;625;-73
2023/03/11 11:45:12;;;;;;;;;;;;;;;14.12;60.52;100838.75;1272803;23;618;-73
2023/03/11 11:46:02;;;;;;;;;;;;;;;14.14;60.66;100844.00;1272711;23;680;-74
2023/03/11 11:46:53;;;;;;;;;;;;;;;14.15;60.88;100843.84;1274461;23;629;-73
2023/03/11 11:47:44;;;;;;;;;;;;;;;14.16;60.99;100847.38;1272723;23;665;-73
2023/03/11 11:48:34;;;;;;;;;;;;;;;14.16;60.82;100850.91;1271885;23;625;-73
2023/03/11 11:49:25;;;;;;;;;;;;;;;14.18;60.98;100842.75;1272825;23;665;-73
2023/03/11 11:50:15;;;;;;;;;;;;;;;14.20;60.52;100844.34;1271942;23;637;-73
2023/03/11 11:51:07;;;;;;;;;;;;;;;14.21;60.17;100847.88;1272719;23;689;-72
2023/03/11 11:51:58;;;;;;;;;;;;;;;14.22;60.01;100834.34;1271430;23;622;-76
2023/03/11 11:52:48;;;;;;;;;;;;;;;14.25;60.38;100842.16;1272683;23;618;-73
2023/03/11 11:53:39;;;;;;;;;;;;;;;14.30;60.43;100843.59;1272747;23;631;-73
2023/03/11 11:54:29;;;;;;;;;;;;;;;14.34;59.90;100847.72;1272528;23;654;-73
2023/03/11 11:55:19;;;;;;;;;;;;;;;14.38;60.01;100846.50;1271930;23;649;-73
2023/03/11 11:56:10;;;;;;;;;;;;;;;14.40;60.19;100847.25;1272697;23;669;-73
2023/03/11 11:57:00;;;;;;;;;;;;;;;14.44;59.88;100843.38;1271431;23;743;-73
2023/03/11 11:57:51;;;;;;;;;;;;;;;14.49;59.71;100846.53;1274514;23;747;-73
2023/03/11 11:58:41;;;;;;;;;;;;;;;14.54;59.09;100849.69;1272536;23;1971;-73
2023/03/11 11:59:32;;;;;;;;;;;;;;;14.58;59.03;100849.31;1272725;23;633;-73
2023/03/11 12:00:24;;;;;;;;;;;;;;;14.64;58.90;100850.66;1271831;23;618;-73
2023/03/11 12:01:15;;;;;;;;;;;;;;;14.68;58.54;100844.06;1272935;23;664;-73
2023/03/11 12:02:05;;;;;;;;;;;;;;;14.77;58.92;100842.44;1272833;23;630;-73
2023/03/11 12:02:56;;;;;;;;;;;;;;;14.85;58.59;100840.84;1272048;23;641;-73
2023/03/11 12:03:46;;;;;;;;;;;;;;;14.96;58.50;100849.81;1272528;23;661;-73
2023/03/11 12:04:37;;;;;;;;;;;;;;;15.02;58.50;100850.19;1272686;23;606;-73
2023/03/11 12:05:27;;;;;;;;;;;;;;;15.10;58.63;100846.81;1271796;23;661;-73
2023/03/11 12:06:17;;;;;;;;;;;;;;;15.13;58.16;100844.75;1271959;23;681;-73
2023/03/11 12:07:08;;;;;;;;;;;;;;;15.18;58.02;100839.84;1271719;23;605;-73
2023/03/11 12:07:58;;;;;;;;;;;;;;;15.24;57.63;100833.09;1272682;23;614;-73
2023/03/11 12:08:49;;;;;;;;;;;;;;;15.28;57.83;100831.84;1271757;23;622;-73
2023/03/11 12:09:39;;;;;;;;;;;;;;;15.33;57.83;100832.31;1272685;23;708;-73
2023/03/11 12:10:30;;;;;;;;;;;;;;;15.40;58.02;100824.63;1272500;23;622;-73
2023/03/11 12:11:20;;;;;;;;;;;;;;;15.45;57.43;100825.03;1272141;23;728;-73
2023/03/11 12:12:11;;;;;;;;;;;;;;;15.46;57.75;100830.28;1272552;23;673;-73
2023/03/11 12:13:04;;;;;;;;;;;;;;;15.55;57.74;100831.34;1272010;23;676;-73
2023/03/11 12:13:59;;;;;;;;;;;;;;;15.62;57.54;100833.38;1271689;23;696;-73
2023/03/11 12:14:49;;;;;;;;;;;;;;;15.71;56.42;100829.06;1273187;23;709;-73
2023/03/11 12:15:40;;;;;;;;;;;;;;;15.79;57.38;100831.06;1273551;23;613;-73
2023/03/11 12:16:30;;;;;;;;;;;;;;;15.88;56.68;100828.47;1272686;23;681;-73
2023/03/11 12:17:22;;;;;;;;;;;;;;;16.03;56.58;100830.78;1272786;23;634;-73
2023/03/11 12:18:12;;;;;;;;;;;;;;;16.24;55.88;100829.75;1271914;23;609;-73
2023/03/11 12:19:03;;;;;;;;;;;;;;;16.58;55.37;100832.09;1274432;23;669;-73
2023/03/11 12:19:53;;;;;;;;;;;;;;;17.14;53.86;100828.78;1272455;23;677;-73
2023/03/11 12:20:44;;;;;;;;;;;;;;;17.88;52.02;100834.34;1272104;23;638;-73
2023/03/11 12:21:34;;;;;;;;;;;;;;;18.80;50.12;100835.19;1271753;23;645;-73
2023/03/11 12:22:25;;;;;;;;;;;;;;;19.80;48.46;100824.06;1272662;23;590;-73
2023/03/11 12:23:15;;;;;;;;;;;;;;;20.84;46.46;100832.78;1272349;23;1213;-74
2023/03/11 12:24:06;;;;;;;;;;;;;;;21.62;44.84;100830.50;1272644;23;670;-73
2023/03/11 12:24:56;;;;;;;;;;;;;;;22.18;43.91;100834.13;1272433;23;669;-73
2023/03/11 12:25:46;;;;;;;;;;;;;;;22.44;42.72;100828.41;1271257;23;650;-73
2023/03/11 12:26:37;;;;;;;;;;;;;;;22.71;42.64;100837.94;1273434;23;724;-73
2023/03/11 12:27:27;;;;;;;;;;;;;;;22.74;42.35;100840.31;1272567;23;673;-73
2023/03/11 12:28:18;;;;;;;;;;;;;;;22.75;42.22;100842.81;1272754;23;677;-73
2023/03/11 12:29:08;;;;;;;;;;;;;;;22.75;41.89;100836.59;1271746;23;661;-73
2023/03/11 12:29:58;;;;;;;;;;;;;;;22.72;42.39;100836.94;1272661;23;650;-73
2023/03/11 12:30:49;;;;;;;;;;;;;;;22.61;42.30;100829.16;1274469;23;680;-73
2023/03/11 12:31:40;;;;;;;;;;;;;;;22.47;42.49;100833.47;1272654;23;669;-73
2023/03/11 12:32:30;;;;;;;;;;;;;;;22.25;42.67;100829.66;1271985;23;715;-73
2023/03/11 12:33:21;;;;;;;;;;;;;;;22.00;43.29;100837.06;1274388;23;657;-73
2023/03/11 12:34:11;;;;;;;;;;;;;;;21.71;43.41;100837.59;1272553;23;692;-73
2023/03/11 12:35:04;;;;;;;;;;;;;;;21.25;44.14;100836.44;1274371;23;618;-73
2023/03/11 12:35:54;;;;;;;;;;;;;;;20.70;45.26;100836.16;1271691;23;610;-73
2023/03/11 12:36:45;;;;;;;;;;;;;;;20.27;46.27;100834.44;1271557;23;657;-73
2023/03/11 12:37:36;;;;;;;;;;;;;;;19.92;46.72;100830.88;1272866;23;626;-73
2023/03/11 12:38:26;;;;;;;;;;;;;;;19.63;47.71;100822.25;1272555;23;609;-73
2023/03/11 12:39:17;;;;;;;;;;;;;;;19.29;47.91;100835.66;1272607;23;677;-74
2023/03/11 12:40:07;;;;;;;;;;;;;;;19.00;48.88;100843.97;1271940;23;658;-73
2023/03/11 12:40:59;;;;;;;;;;;;;;;18.76;49.14;100836.50;1271685;23;785;-73
2023/03/11 12:41:49;;;;;;;;;;;;;;;18.67;49.92;100835.53;1271912;23;775;-74
2023/03/11 12:42:40;;;;;;;;;;;;;;;18.60;49.92;100833.63;1274562;23;721;-73
2023/03/11 12:43:32;;;;;;;;;;;;;;;18.42;50.14;100836.25;1272570;23;650;-73
2023/03/11 12:44:23;;;;;;;;;;;;;;;18.35;50.75;100830.59;1272735;23;622;-73
2023/03/11 12:45:13;;;;;;;;;;;;;;;18.33;50.13;100829.03;1274328;23;657;-73
2023/03/11 12:46:03;;;;;;;;;;;;;;;18.34;50.59;100834.28;1272588;23;672;-72
2023/03/11 12:46:57;;;;;;;;;;;;;;;18.37;49.56;100831.28;1273449;23;676;-73
2023/03/11 12:47:47;;;;;;;;;;;;;;;18.39;50.25;100832.00;1272484;23;642;-72
2023/03/11 12:48:38;;;;;;;;;;;;;;;18.45;49.87;100835.09;1272647;23;622;-72
2023/03/11 12:49:31;;;;;;;;;;;;;;;18.48;50.63;100832.06;1274152;23;677;-72
2023/03/11 12:50:21;;;;;;;;;;;;;;;18.52;50.00;100834.34;1272520;23;636;-72
2023/03/11 12:51:12;;;;;;;;;;;;;;;18.59;49.91;100835.47;1271451;23;607;-72
2023/03/11 12:52:02;;;;;;;;;;;;;;;18.67;50.21;100834.69;1274272;23;626;-72
2023/03/11 12:52:53;;;;;;;;;;;;;;;18.71;50.01;100825.28;1272827;23;685;-72
2023/03/11 12:53:43;;;;;;;;;;;;;;;18.79;49.46;100836.19;1274283;23;664;-72
2023/03/11 12:54:34;;;;;;;;;;;;;;;18.83;49.44;100834.88;1272619;23;650;-72
2023/03/11 12:55:24;;;;;;;;;;;;;;;18.85;49.49;100840.13;1272342;23;618;-72
2023/03/11 12:56:14;;;;;;;;;;;;;;;18.87;48.54;100836.25;1272629;23;716;-72
2023/03/11 12:57:05;;;;;;;;;;;;;;;18.93;49.43;100845.59;1271105;23;603;-72
2023/03/11 12:57:56;;;;;;;;;;;;;;;18.98;48.87;100837.91;1273096;23;654;-72
2023/03/11 12:58:46;;;;;;;;;;;;;;;19.03;48.81;100840.97;1273402;23;1936;-72
2023/03/11 12:59:37;;;;;;;;;;;;;;;18.98;48.13;100841.47;1272590;23;669;-72
2023/03/11 13:00:29;;;;;;;;;;;;;;;19.06;48.24;100837.97;1272464;23;650;-72
2023/03/11 13:01:19;;;;;;;;;;;;;;;19.08;48.19;100841.38;1271800;23;618;-72
2023/03/11 13:02:10;;;;;;;;;;;;;;;19.14;48.90;100840.75;1272551;23;638;-72
2023/03/11 13:03:00;;;;;;;;;;;;;;;19.17;47.99;100839.59;1272498;23;682;-72
2023/03/11 13:03:51;;;;;;;;;;;;;;;19.21;47.83;100832.84;1272556;23;674;-72
2023/03/11 13:04:41;;;;;;;;;;;;;;;19.28;48.18;100839.34;1271606;23;626;-72
2023/03/11 13:05:32;;;;;;;;;;;;;;;19.31;48.18;100833.63;1272462;23;646;-72
2023/03/11 13:06:22;;;;;;;;;;;;;;;19.31;47.59;100831.78;1271705;23;626;-72
2023/03/11 13:07:12;;;;;;;;;;;;;;;19.31;48.07;100833.63;1271768;23;634;-72
2023/03/11 13:08:03;;;;;;;;;;;;;;;19.34;48.08;100836.03;1273365;23;704;-72
2023/03/11 13:08:53;;;;;;;;;;;;;;;19.33;47.58;100828.94;1272541;23;832;-72
2023/03/11 13:09:44;;;;;;;;;;;;;;;19.35;47.60;100835.00;1272601;23;677;-71
2023/03/11 13:10:34;;;;;;;;;;;;;;;19.31;48.15;100830.94;1271673;23;603;-72
2023/03/11 13:11:25;;;;;;;;;;;;;;;19.21;47.75;100836.41;1271956;23;626;-72
2023/03/11 13:12:15;;;;;;;;;;;;;;;19.22;48.21;100837.25;1271266;23;685;-73
2023/03/11 13:13:05;;;;;;;;;;;;;;;19.29;48.36;100839.19;1273908;23;660;-72
2023/03/11 13:13:56;;;;;;;;;;;;;;;19.36;47.84;100834.84;1273614;23;645;-72
2023/03/11 13:14:46;;;;;;;;;;;;;;;19.43;48.19;100829.69;1274301;23;630;-72
2023/03/11 13:15:37;;;;;;;;;;;;;;;19.50;47.17;100838.91;1272520;23;627;-72
2023/03/11 13:16:27;;;;;;;;;;;;;;;19.57;47.38;100834.53;1272433;23;661;-72
2023/03/11 13:17:18;;;;;;;;;;;;;;;19.64;46.85;100832.91;1271886;23;649;-72
2023/03/11 13:18:08;;;;;;;;;;;;;;;19.58;47.79;100830.84;1272475;23;799;-72
2023/03/11 13:18:58;;;;;;;;;;;;;;;19.50;47.85;100825.38;1271541;23;1904;-72
2023/03/11 13:19:49;;;;;;;;;;;;;;;19.39;47.48;100834.53;1272615;23;626;-72
2023/03/11 13:20:42;;;;;;;;;;;;;;;19.24;47.43;100829.84;1274186;23;614;-72
2023/03/11 13:21:33;;;;;;;;;;;;;;;19.18;47.86;100844.81;1272598;23;684;-73
2023/03/11 13:22:23;;;;;;;;;;;;;;;19.25;47.90;100831.56;1271805;23;642;-72
2023/03/11 13:23:14;;;;;;;;;;;;;;;19.33;48.14;100831.63;1272498;23;1095;-72
2023/03/11 13:24:04;;;;;;;;;;;;;;;19.16;47.62;100827.09;1270713;23;626;-73
2023/03/11 13:24:55;;;;;;;;;;;;;;;19.18;48.40;100831.31;1273022;23;657;-72
2023/03/11 13:25:45;;;;;;;;;;;;;;;19.32;47.78;100833.50;1273420;23;665;-72
2023/03/11 13:26:35;;;;;;;;;;;;;;;19.45;47.30;100827.66;1271463;23;653;-72
2023/03/11 13:27:26;;;;;;;;;;;;;;;19.64;46.92;100824.81;1272016;23;657;-73
2023/03/11 13:28:16;;;;;;;;;;;;;;;19.73;47.12;100829.25;1273294;23;688;-73
2023/03/11 13:29:07;;;;;;;;;;;;;;;19.81;46.62;100831.16;1271193;23;665;-72
2023/03/11 13:29:58;;;;;;;;;;;;;;;19.90;47.04;100829.34;1273047;23;630;-72
2023/03/11 13:30:48;;;;;;;;;;;;;;;19.97;46.28;100822.28;1273326;23;748;-72
2023/03/11 13:31:38;;;;;;;;;;;;;;;19.97;46.47;100820.44;1272546;23;637;-73
2023/03/11 13:32:29;;;;;;;;;;;;;;;19.96;46.27;100826.00;1274218;23;712;-72
2023/03/11 13:33:19;;;;;;;;;;;;;;;19.94;46.38;100839.69;1272386;23;740;-72
2023/03/11 13:34:10;;;;;;;;;;;;;;;19.89;46.44;100824.94;1272570;23;634;-72
2023/03/11 13:35:00;;;;;;;;;;;;;;;19.92;46.42;100827.31;1272412;23;661;-73
2023/03/11 13:35:50;;;;;;;;;;;;;;;19.91;46.67;100829.19;1272654;23;773;-72
2023/03/11 13:36:41;;;;;;;;;;;;;;;19.94;46.23;100822.59;1274297;23;610;-72
2023/03/11 13:37:31;;;;;;;;;;;;;;;19.97;46.44;100822.28;1272411;23;606;-72
2023/03/11 13:38:22;;;;;;;;;;;;;;;20.00;46.52;100822.81;1271363;23;645;-72
2023/03/11 13:39:12;;;;;;;;;;;;;;;19.93;46.45;100826.31;1272439;23;661;-72
2023/03/11 13:40:03;;;;;;;;;;;;;;;19.96;46.77;100826.00;1272561;23;681;-72
2023/03/11 13:40:53;;;;;;;;;;;;;;;20.00;46.50;100825.53;1272211;23;669;-72
2023/03/11 13:41:44;;;;;;;;;;;;;;;20.07;46.00;100823.84;1272237;23;664;-73
2023/03/11 13:42:34;;;;;;;;;;;;;;;20.10;46.21;100828.09;1272525;23;610;-72
2023/03/11 13:43:24;;;;;;;;;;;;;;;20.21;45.93;100832.41;1271321;23;801;-72
2023/03/11 13:44:15;;;;;;;;;;;;;;;20.24;46.02;100829.38;1273240;23;633;-72
2023/03/11 13:45:05;;;;;;;;;;;;;;;20.29;45.70;100827.84;1273337;23;657;-73
2023/03/11 13:45:56;;;;;;;;;;;;;;;20.36;45.76;100834.34;1271884;23;633;-72
2023/03/11 13:46:48;;;;;;;;;;;;;;;20.39;45.70;100831.31;1271560;23;626;-73
2023/03/11 13:47:39;;;;;;;;;;;;;;;20.24;45.51;100827.50;1271417;23;642;-72
2023/03/11 13:48:29;;;;;;;;;;;;;;;20.06;46.05;100837.56;1273061;23;653;-73
2023/03/11 13:49:19;;;;;;;;;;;;;;;20.00;46.56;100827.38;1273393;23;661;-72
2023/03/11 13:50:10;;;;;;;;;;;;;;;19.94;46.25;100836.13;1271139;23;665;-72
2023/03/11 13:51:00;;;;;;;;;;;;;;;19.89;46.33;100836.59;1273081;23;713;-72
2023/03/11 13:51:51;;;;;;;;;;;;;;;19.86;46.56;100826.13;1273300;23;688;-72
2023/03/11 13:52:41;;;;;;;;;;;;;;;19.84;46.84;100828.13;1270685;23;681;-72
2023/03/11 13:53:32;;;;;;;;;;;;;;;19.83;46.43;100828.31;1273018;23;681;-72
2023/03/11 13:54:22;;;;;;;;;;;;;;;19.80;46.78;100834.03;1272945;23;660;-72
2023/03/11 13:55:12;;;;;;;;;;;;;;;19.83;47.04;100839.13;1272545;23;622;-72
2023/03/11 13:56:03;;;;;;;;;;;;;;;19.75;46.92;100843.44;1272535;23;633;-72
2023/03/11 13:56:53;;;;;;;;;;;;;;;19.65;46.84;100840.03;1272476;23;661;-72
2023/03/11 13:57:44;;;;;;;;;;;;;;;19.59;46.70;100840.63;1272589;23;645;-72
2023/03/11 13:58:34;;;;;;;;;;;;;;;19.61;46.92;100840.47;1272528;23;641;-72
2023/03/11 13:59:25;;;;;;;;;;;;;;;19.67;46.91;100846.13;1272471;23;731;-73
2023/03/11 14:00:16;;;;;;;;;;;;;;;19.76;47.05;100838.91;1272532;23;656;-72
2023/03/11 14:01:06;;;;;;;;;;;;;;;19.77;46.68;100830.63;1272437;23;613;-73
2023/03/11 14:01:57;;;;;;;;;;;;;;;19.82;46.42;100832.84;1271908;23;673;-72
2023/03/11 14:02:49;;;;;;;;;;;;;;;19.72;47.18;100840.22;1272392;23;661;-72
2023/03/11 14:03:40;;;;;;;;;;;;;;;19.56;47.56;100835.53;1271774;23;673;-72
2023/03/11 14:04:30;;;;;;;;;;;;;;;19.47;47.36;100824.81;1271581;23;617;-72
2023/03/11 14:05:21;;;;;;;;;;;;;;;19.32;47.37;100833.50;1272536;23;700;-72
2023/03/11 14:06:11;;;;;;;;;;;;;;;19.24;47.27;100837.97;1272382;23;657;-72
2023/03/11 14:07:01;;;;;;;;;;;;;;;19.07;47.92;100832.41;1272542;23;626;-72
2023/03/11 14:07:52;;;;;;;;;;;;;;;19.04;48.60;100835.41;1272638;23;677;-73
2023/03/11 14:08:42;;;;;;;;;;;;;;;19.05;47.98;100842.53;1272474;23;622;-72
2023/03/11 14:09:33;;;;;;;;;;;;;;;19.05;48.00;100841.66;1272528;23;701;-73
2023/03/11 14:10:23;;;;;;;;;;;;;;;19.01;48.20;100846.53;1272210;23;594;-73
2023/03/11 14:11:13;;;;;;;;;;;;;;;18.92;48.82;100847.47;1272590;23;649;-72
2023/03/11 14:12:06;;;;;;;;;;;;;;;18.82;48.83;100840.41;1272566;23;641;-73
2023/03/11 14:12:56;;;;;;;;;;;;;;;18.74;48.46;100838.50;1272581;23;613;-73
2023/03/11 14:13:48;;;;;;;;;;;;;;;18.63;48.67;100841.41;1272592;23;670;-73
2023/03/11 14:14:39;;;;;;;;;;;;;;;18.53;49.84;100840.56;1272694;23;618;-73
2023/03/11 14:15:29;;;;;;;;;;;;;;;18.45;50.15;100838.63;1274371;23;610;-73
2023/03/11 14:16:20;;;;;;;;;;;;;;;18.40;49.41;100840.94;1272239;23;623;-73
2023/03/11 14:17:10;;;;;;;;;;;;;;;18.45;49.48;100838.63;1273726;23;731;-73
2023/03/11 14:18:00;;;;;;;;;;;;;;;18.55;48.78;100843.97;1272952;23;642;-73
2023/03/11 14:18:51;;;;;;;;;;;;;;;18.61;48.50;100843.41;1272812;23;1940;-73
2023/03/11 14:19:41;;;;;;;;;;;;;;;18.67;49.05;100853.59;1274600;23;653;-73
2023/03/11 14:20:32;;;;;;;;;;;;;;;18.82;48.61;100852.06;1272873;23;610;-73
2023/03/11 14:21:22;;;;;;;;;;;;;;;18.94;48.27;100844.59;1274706;23;677;-73
2023/03/11 14:22:13;;;;;;;;;;;;;;;18.98;48.25;100844.16;1272859;23;661;-73
2023/03/11 14:23:03;;;;;;;;;;;;;;;18.95;48.60;100847.16;1271624;23;1216;-73
2023/03/11 14:23:53;;;;;;;;;;;;;;;18.84;48.35;100841.97;1272027;23;693;-73
2023/03/11 14:24:44;;;;;;;;;;;;;;;18.79;48.82;100841.59;1272924;23;689;-73
2023/03/11 14:25:37;;;;;;;;;;;;;;;18.74;48.53;100849.28;1272029;23;665;-73
2023/03/11 14:26:28;;;;;;;;;;;;;;;18.68;48.92;100844.50;1272739;23;618;-72
2023/03/11 14:27:18;;;;;;;;;;;;;;;18.60;49.25;100852.50;1271909;23;669;-73
2023/03/11 14:28:08;;;;;;;;;;;;;;;18.54;49.47;100847.69;1272749;23;614;-71
2023/03/11 14:28:59;;;;;;;;;;;;;;;18.52;49.13;100849.69;1272226;23;665;-72
2023/03/11 14:29:49;;;;;;;;;;;;;;;18.47;48.91;100847.41;1271592;23;653;-73
2023/03/11 14:30:40;;;;;;;;;;;;;;;18.45;49.13;100846.72;1273524;23;681;-73
2023/03/11 14:31:30;;;;;;;;;;;;;;;18.51;49.77;100853.38;1273575;23;653;-73
2023/03/11 14:32:21;;;;;;;;;;;;;;;18.59;49.66;100848.13;1272939;23;650;-73
2023/03/11 14:33:11;;;;;;;;;;;;;;;18.56;48.49;100851.06;1271836;23;633;-72
2023/03/11 14:34:06;;;;;;;;;;;;;;;18.47;49.09;100851.97;1271692;23;626;-72
2023/03/11 14:34:56;;;;;;;;;;;;;;;18.45;49.76;100851.28;1273379;23;672;-72
2023/03/11 14:35:47;;;;;;;;;;;;;;;18.46;49.64;100850.25;1273645;23;616;-72
2023/03/11 14:36:37;;;;;;;;;;;;;;;18.37;49.70;100844.78;1274581;23;630;-71
2023/03/11 14:37:27;;;;;;;;;;;;;;;18.33;49.71;100847.94;1272738;23;642;-72
2023/03/11 14:38:18;;;;;;;;;;;;;;;18.30;49.92;100859.84;1272375;23;701;-72
2023/03/11 14:39:08;;;;;;;;;;;;;;;18.29;49.99;100850.06;1272742;23;1980;-72
2023/03/11 14:39:59;;;;;;;;;;;;;;;18.29;49.89;100849.22;1272899;23;630;-72
2023/03/11 14:40:49;;;;;;;;;;;;;;;18.29;50.06;100847.38;1272676;23;635;-72
2023/03/11 14:41:40;;;;;;;;;;;;;;;18.32;50.38;100855.16;1272928;23;619;-72
2023/03/11 14:42:30;;;;;;;;;;;;;;;18.45;50.29;100849.41;1274554;23;676;-72
2023/03/11 14:43:21;;;;;;;;;;;;;;;18.57;49.06;100850.09;1271687;23;629;-72
2023/03/11 14:44:11;;;;;;;;;;;;;;;18.69;48.84;100846.19;1273251;23;621;-72
2023/03/11 14:45:03;;;;;;;;;;;;;;;18.83;49.12;100845.66;1273758;23;618;-72
2023/03/11 14:45:54;;;;;;;;;;;;;;;18.99;47.88;100848.53;1272079;23;634;-72
2023/03/11 14:46:44;;;;;;;;;;;;;;;19.16;47.74;100860.38;1272740;23;668;-72
2023/03/11 14:47:35;;;;;;;;;;;;;;;19.43;47.72;100848.59;1274502;23;704;-72
2023/03/11 14:48:25;;;;;;;;;;;;;;;19.62;47.31;100848.44;1273293;23;688;-72
2023/03/11 14:49:16;;;;;;;;;;;;;;;19.79;46.64;100840.44;1273377;23;605;-72
2023/03/11 14:50:06;;;;;;;;;;;;;;;19.85;46.86;100842.50;1273467;23;621;-72
2023/03/11 14:50:56;;;;;;;;;;;;;;;19.77;46.84;100846.00;1271041;23;622;-72
2023/03/11 14:51:48;;;;;;;;;;;;;;;19.68;47.15;100839.72;1273259;23;685;-73
2023/03/11 14:52:38;;;;;;;;;;;;;;;19.63;47.32;100838.47;1273719;23;684;-73
2023/03/11 14:53:28;;;;;;;;;;;;;;;19.61;47.53;100848.59;1272747;23;657;-72
2023/03/11 14:54:20;;;;;;;;;;;;;;;19.50;46.94;100838.91;1272076;23;681;-73
2023/03/11 14:55:10;;;;;;;;;;;;;;;19.48;47.53;100846.28;1271904;23;625;-72
2023/03/11 14:56:01;;;;;;;;;;;;;;;19.54;46.91;100851.06;1272835;23;669;-72
2023/03/11 14:56:52;;;;;;;;;;;;;;;19.62;47.26;100840.31;1271861;23;673;-73
2023/03/11 14:57:42;;;;;;;;;;;;;;;19.69;47.09;100846.81;1271797;23;626;-72
2023/03/11 14:58:36;;;;;;;;;;;;;;;19.75;47.12;100842.59;1272717;23;619;-73
2023/03/11 14:59:26;;;;;;;;;;;;;;;19.31;47.67;100841.75;1273639;23;782;-73
2023/03/11 15:00:17;;;;;;;;;;;;;;;19.06;47.90;100851.47;1271984;23;684;-73
2023/03/11 15:01:07;;;;;;;;;;;;;;;18.87;48.31;100849.75;1272976;23;630;-73
2023/03/11 15:01:57;;;;;;;;;;;;;;;18.62;49.20;100837.03;1271983;23;626;-73
2023/03/11 15:02:48;;;;;;;;;;;;;;;18.42;49.29;100843.50;1272713;23;618;-73
2023/03/11 15:03:38;;;;;;;;;;;;;;;18.23;50.01;100852.53;1271824;23;662;-73
2023/03/11 15:04:31;;;;;;;;;;;;;;;18.10;50.41;100850.16;1272726;23;633;-73
2023/03/11 15:05:21;;;;;;;;;;;;;;;18.06;50.68;100847.91;1271399;23;610;-73
2023/03/11 15:06:12;;;;;;;;;;;;;;;18.13;50.35;100849.84;1274299;23;629;-73
2023/03/11 15:07:03;;;;;;;;;;;;;;;18.19;49.49;100849.28;1274542;23;625;-73
2023/03/11 15:07:53;;;;;;;;;;;;;;;18.12;50.09;100855.41;1272162;23;665;-73
2023/03/11 15:08:43;;;;;;;;;;;;;;;17.98;50.26;100851.34;1272722;23;626;-71
2023/03/11 15:09:34;;;;;;;;;;;;;;;17.86;50.51;100847.13;1271699;23;701;-73
2023/03/11 15:10:24;;;;;;;;;;;;;;;17.80;50.49;100850.41;1273283;23;609;-73
2023/03/11 15:11:15;;;;;;;;;;;;;;;17.73;50.98;100846.59;1273553;23;767;-73
2023/03/11 15:12:05;;;;;;;;;;;;;;;17.68;51.42;100855.97;1274618;23;661;-72
2023/03/11 15:12:56;;;;;;;;;;;;;;;17.65;51.72;100855.41;1272765;23;650;-73
2023/03/11 15:13:49;;;;;;;;;;;;;;;17.61;51.40;100849.41;1273519;23;677;-72
2023/03/11 15:14:39;;;;;;;;;;;;;;;17.61;51.57;100848.56;1271867;23;629;-73
2023/03/11 15:15:30;;;;;;;;;;;;;;;17.59;51.52;100846.00;1272766;23;1008;-73
2023/03/11 15:16:20;;;;;;;;;;;;;;;17.58;51.54;100840.75;1272658;23;673;-71
2023/03/11 15:17:11;;;;;;;;;;;;;;;17.55;51.70;100843.78;1272741;23;654;-71
2023/03/11 15:18:01;;;;;;;;;;;;;;;17.52;52.12;100844.91;1274530;23;830;-72
2023/03/11 15:18:53;;;;;;;;;;;;;;;17.49;51.50;100847.88;1272660;23;1880;-72
2023/03/11 15:19:43;;;;;;;;;;;;;;;17.44;51.63;100847.47;1271280;23;638;-72
2023/03/11 15:20:34;;;;;;;;;;;;;;;17.41;52.27;100839.66;1272669;23;664;-72
2023/03/11 15:21:24;;;;;;;;;;;;;;;17.37;51.56;100838.28;1274437;23;649;-72
2023/03/11 15:22:15;;;;;;;;;;;;;;;17.37;52.09;100848.19;1272749;23;692;-73
2023/03/11 15:23:06;;;;;;;;;;;;;;;17.29;52.26;100843.50;1274402;23;1261;-73
2023/03/11 15:23:56;;;;;;;;;;;;;;;17.25;51.91;100845.63;1271960;23;664;-73
2023/03/11 15:24:47;;;;;;;;;;;;;;;17.23;52.49;100835.97;1272974;23;629;-73
2023/03/11 15:25:37;;;;;;;;;;;;;;;17.18;52.90;100843.66;1271813;23;665;-72
2023/03/11 15:26:28;;;;;;;;;;;;;;;17.15;52.83;100841.25;1272647;23;700;-72
2023/03/11 15:27:18;;;;;;;;;;;;;;;17.12;52.68;100841.53;1273593;23;775;-72
2023/03/11 15:28:08;;;;;;;;;;;;;;;17.11;52.57;100842.53;1271987;23;618;-73
2023/03/11 15:28:59;;;;;;;;;;;;;;;17.15;52.26;100842.09;1274413;23;641;-72
2023/03/11 15:29:50;;;;;;;;;;;;;;;17.28;52.09;100842.66;1271583;23;649;-71
2023/03/11 15:30:40;;;;;;;;;;;;;;;17.49;51.91;100838.94;1273233;23;601;-73
2023/03/11 15:31:31;;;;;;;;;;;;;;;17.62;51.96;100840.34;1273762;23;617;-72
2023/03/11 15:32:21;;;;;;;;;;;;;;;17.68;50.96;100839.78;1274510;23;723;-72
2023/03/11 15:33:12;;;;;;;;;;;;;;;17.78;51.04;100838.91;1272797;23;629;-72
2023/03/11 15:34:02;;;;;;;;;;;;;;;17.84;51.02;100843.72;1272851;23;633;-71
2023/03/11 15:34:52;;;;;;;;;;;;;;;17.87;51.20;100848.84;1272773;23;696;-71
2023/03/11 15:35:43;;;;;;;;;;;;;;;17.74;51.14;100849.13;1272892;23;651;-71
2023/03/11 15:36:33;;;;;;;;;;;;;;;17.63;51.10;100841.19;1271944;23;677;-72
2023/03/11 15:37:25;;;;;;;;;;;;;;;17.59;51.10;100837.94;1272631;23;700;-72
2023/03/11 15:38:16;;;;;;;;;;;;;;;17.49;51.23;100839.81;1271740;23;618;-72
2023/03/11 15:39:07;;;;;;;;;;;;;;;17.41;51.12;100831.56;1271974;23;2012;-72
2023/03/11 15:39:57;;;;;;;;;;;;;;;17.40;52.14;100835.25;1271761;23;637;-72
2023/03/11 15:40:49;;;;;;;;;;;;;;;17.54;51.35;100837.53;1272786;23;704;-71
2023/03/11 15:41:39;;;;;;;;;;;;;;;17.77;50.53;100837.22;1272032;23;665;-72
2023/03/11 15:42:29;;;;;;;;;;;;;;;17.84;51.06;100838.34;1272636;23;614;-72
2023/03/11 15:43:20;;;;;;;;;;;;;;;17.70;50.85;100842.34;1272736;23;661;-72
2023/03/11 15:44:10;;;;;;;;;;;;;;;17.56;51.00;100846.28;1271886;23;637;-72
2023/03/11 15:45:01;;;;;;;;;;;;;;;17.42;51.59;100827.88;1272068;23;681;-72
2023/03/11 15:45:54;;;;;;;;;;;;;;;17.33;51.52;100834.16;1271766;23;688;-72
2023/03/11 15:46:45;;;;;;;;;;;;;;;17.26;52.38;100838.41;1272661;23;614;-73
2023/03/11 15:47:35;;;;;;;;;;;;;;;17.20;52.49;100833.56;1272900;23;622;-72
2023/03/11 15:48:27;;;;;;;;;;;;;;;17.16;52.64;100833.03;1272642;23;629;-72
2023/03/11 15:49:18;;;;;;;;;;;;;;;17.13;51.65;100836.00;1271988;23;673;-72